Ship Status Report: callsign BR3037

sailwx.info

Track history (hours):
 
Tides and Currents Weather Stations Pressure Air Temp Water Temp Dewpoint Dewpoint Depression Visibility Wind Speed Wind Dir Waves Ship Positions

Oceanographic research ship ()

Last reported at 2017-Dec-18 06:41 UTC. Time now 2017-Dec-18 09:16 UTC.
Position N 22°28' E 120°14'.

Length 39 m.

Type: Other ship. MMSI: 416926000.

Date/timePositionNaut miles runAvg speedWind from/ knotsBaromVisibWave heightAir tempDewpointWater temp
2017-Dec-18 06:41N 22°28' E 120°14'2 9.7
2017-Dec-18 06:30N 22°30' E 120°13'5 9.6
2017-Dec-18 05:59N 22°35' E 120°11'4 7.8
2017-Dec-18 05:30N 22°38' E 120°13'4 7.3
2017-Dec-18 04:58N 22°37' E 120°17'0 0.6
2017-Dec-18 04:28N 22°37' E 120°17'0 0.4
2017-Dec-18 03:48N 22°37' E 120°17'0 0.0
2017-Dec-18 03:30N 22°37' E 120°17'0 0.0
2017-Dec-18 02:18N 22°37' E 120°17'0 0.0
2017-Dec-18 02:00N 22°37' E 120°17'0 0.0
2017-Dec-16 17:06N 22°37' E 120°17'0 0.3
2017-Dec-16 17:00N 22°37' E 120°17'3 6.8
2017-Dec-16 16:30N 22°37' E 120°13'3 6.2
2017-Dec-16 16:00N 22°34' E 120°12'5 9.1
2017-Dec-16 15:29N 22°30' E 120°14'2 0.1
2017-Dec-15 03:59N 22°28' E 120°15'10 6.7
2017-Dec-15 02:30N 22°38' E 120°14'3 1.9
2017-Dec-15 00:57N 22°37' E 120°17'0 0.0
2017-Dec-15 00:19N 22°37' E 120°17'0 0.0
2017-Dec-13 07:22N 22°37' E 120°17'6 0.3
2017-Dec-12 06:52N 22°35' E 120°10'1 2.4
2017-Dec-12 06:22N 22°36' E 120°10'1 1.9
2017-Dec-12 05:56N 22°35' E 120°10'1 1.5
2017-Dec-12 05:06N 22°36' E 120°11'0 1.3
2017-Dec-12 04:48N 22°36' E 120°11'0 0.8
2017-Dec-12 04:30N 22°36' E 120°11'1 1.5
2017-Dec-12 03:57N 22°37' E 120°12'2 4.8
2017-Dec-12 03:30N 22°39' E 120°13'2 3.2
2017-Dec-12 03:00N 22°39' E 120°14'1 1.0
2017-Dec-12 02:26N 22°38' E 120°14'1 1.5
2017-Dec-12 02:00N 22°38' E 120°15'2 0.1
2017-Dec-10 09:25N 22°37' E 120°17'2 4.7
2017-Dec-10 09:00N 22°37' E 120°15'19 9.0
2017-Dec-10 06:53N 22°54' E 120°06'3 8.2
2017-Dec-10 06:29N 22°57' E 120°05'1 0.0
2017-Dec-09 07:10N 22°58' E 120°04'2 9.9
2017-Dec-09 07:00N 22°56' E 120°05'18 3.5
2017-Dec-09 01:53N 22°40' E 120°12'410.0
2017-Dec-09 01:29N 22°37' E 120°16'1 2.4
2017-Dec-09 00:56N 22°37' E 120°17'0 0.0
2017-Dec-09 00:26N 22°37' E 120°17'  
Track history (hours):
 
Tides and Currents Weather Stations Pressure Air Temp Water Temp Dewpoint Dewpoint Depression Visibility Wind Speed Wind Dir Waves Ship Positions

Oceanographic research ship ()

Last reported at 2017-Dec-18 06:41 UTC. Time now 2017-Dec-18 09:16 UTC.
Position N 22°28' E 120°14'.

Length 39 m.

Type: Other ship. MMSI: 416926000.

Date/timePositionNaut miles runAvg speedWind from/ knotsBaromVisibWave heightAir tempDewpointWater temp
2017-Dec-18 06:41N 22°28' E 120°14'2 9.7
2017-Dec-18 06:30N 22°30' E 120°13'5 9.6
2017-Dec-18 05:59N 22°35' E 120°11'4 7.8
2017-Dec-18 05:30N 22°38' E 120°13'4 7.3
2017-Dec-18 04:58N 22°37' E 120°17'0 0.6
2017-Dec-18 04:28N 22°37' E 120°17'0 0.4
2017-Dec-18 03:48N 22°37' E 120°17'0 0.0
2017-Dec-18 03:30N 22°37' E 120°17'0 0.0
2017-Dec-18 02:18N 22°37' E 120°17'0 0.0
2017-Dec-18 02:00N 22°37' E 120°17'0 0.0
2017-Dec-16 17:06N 22°37' E 120°17'0 0.3
2017-Dec-16 17:00N 22°37' E 120°17'3 6.8
2017-Dec-16 16:30N 22°37' E 120°13'3 6.2
2017-Dec-16 16:00N 22°34' E 120°12'5 9.1
2017-Dec-16 15:29N 22°30' E 120°14'2 0.1
2017-Dec-15 03:59N 22°28' E 120°15'10 6.7
2017-Dec-15 02:30N 22°38' E 120°14'3 1.9
2017-Dec-15 00:57N 22°37' E 120°17'0 0.0
2017-Dec-15 00:19N 22°37' E 120°17'0 0.0
2017-Dec-13 07:22N 22°37' E 120°17'6 0.3
2017-Dec-12 06:52N 22°35' E 120°10'1 2.4
2017-Dec-12 06:22N 22°36' E 120°10'1 1.9
2017-Dec-12 05:56N 22°35' E 120°10'1 1.5
2017-Dec-12 05:06N 22°36' E 120°11'0 1.3
2017-Dec-12 04:48N 22°36' E 120°11'0 0.8
2017-Dec-12 04:30N 22°36' E 120°11'1 1.5
2017-Dec-12 03:57N 22°37' E 120°12'2 4.8
2017-Dec-12 03:30N 22°39' E 120°13'2 3.2
2017-Dec-12 03:00N 22°39' E 120°14'1 1.0
2017-Dec-12 02:26N 22°38' E 120°14'1 1.5
2017-Dec-12 02:00N 22°38' E 120°15'2 0.1
2017-Dec-10 09:25N 22°37' E 120°17'2 4.7
2017-Dec-10 09:00N 22°37' E 120°15'19 9.0
2017-Dec-10 06:53N 22°54' E 120°06'3 8.2
2017-Dec-10 06:29N 22°57' E 120°05'1 0.0
2017-Dec-09 07:10N 22°58' E 120°04'2 9.9
2017-Dec-09 07:00N 22°56' E 120°05'18 3.5
2017-Dec-09 01:53N 22°40' E 120°12'410.0
2017-Dec-09 01:29N 22°37' E 120°16'1 2.4
2017-Dec-09 00:56N 22°37' E 120°17'0 0.0
2017-Dec-09 00:26N 22°37' E 120°17'  

Dump ship's entire track history